»·PEaware :: SWA544 KLAX-KLAS

SWA544 :: KLAX-KLAS

FLIGHT INFORMATION

Flight Status: Arrived
Operator:
Southwest Airlines
More flights by this operator :: More flights under this callsign
Pilot: Noam B. (29261)
Aircraft: BOEING 737-800
(B738)
More flights by this aircraft type
Origin: KLAX Los Angeles Intl
United States
Destination: KLAS McCarran Intl
United States
More flights between these airports :: More routes between these airports
Route: +ORKCA4 MISEN KEPEC6
File this flight plan on PilotEdge
Remarks:
Altitude:
(Current/Filed)
35,000ft
Speed:
(Current/Filed)
370kts
Departed: 16-May-20 02:57 PM
Arrived: 16-May-20 03:53 PM
Distance/Time
Traveled:
205nm/0:56
Distance/Time
To Go:
Arrived

Flight Plot

Page will automatically refresh every two minutes.


Map Options




Map Legend


Flown Route
Filed Route
Departure Airport
Arrival Airport
Navaid (VOR, NDB)
Fix

Horizontal Profiles

Position Reports

Time Latitude Longitude Heading Altitude Ground
Speed
16-May-20 14:23 33.946833 -118.400682 264 128ft 0kts
16-May-20 14:24 33.946833 -118.400682 264 128ft 0kts
16-May-20 14:25 33.946833 -118.400682 264 128ft 0kts
16-May-20 14:26 33.946833 -118.400682 264 128ft 0kts
16-May-20 14:27 33.946833 -118.400682 264 128ft 0kts
16-May-20 14:27 33.946833 -118.400682 264 128ft 0kts
16-May-20 14:29 33.946833 -118.400682 264 128ft 0kts
16-May-20 14:30 33.946833 -118.400682 264 128ft 0kts
16-May-20 14:30 33.946833 -118.400682 264 128ft 0kts
16-May-20 14:31 33.946833 -118.400682 264 128ft 0kts
16-May-20 14:33 33.946833 -118.400682 264 128ft 0kts
16-May-20 14:33 33.946833 -118.400682 264 128ft 0kts
16-May-20 14:34 33.946833 -118.400682 264 128ft 0kts
16-May-20 14:35 33.946833 -118.400682 264 128ft 0kts
16-May-20 14:36 33.946833 -118.400682 264 128ft 0kts
16-May-20 14:37 33.946833 -118.400682 264 128ft 0kts
16-May-20 14:38 33.946833 -118.400682 264 128ft 0kts
16-May-20 14:39 33.946833 -118.400682 264 128ft 0kts
16-May-20 14:40 33.946833 -118.400682 264 128ft 0kts
16-May-20 14:41 33.946833 -118.400682 264 128ft 0kts
16-May-20 14:42 33.946833 -118.400682 264 128ft 0kts
16-May-20 14:43 33.946833 -118.400682 264 128ft 0kts
16-May-20 14:44 33.946833 -118.400682 264 128ft 0kts
16-May-20 14:45 33.946833 -118.400681 264 128ft 0kts
16-May-20 14:46 33.946766 -118.400136 329 128ft 2kts
16-May-20 14:47 33.946586 -118.400091 0 128ft 0kts
16-May-20 14:48 33.946586 -118.400091 0 128ft 0kts
16-May-20 14:49 33.946586 -118.400091 0 128ft 0kts
16-May-20 14:50 33.946586 -118.400091 0 128ft 0kts
16-May-20 14:51 33.948039 -118.400070 357 126ft 9kts
16-May-20 14:52 33.949155 -118.400634 350 124ft 0kts
16-May-20 14:53 33.949155 -118.400634 350 124ft 0kts
16-May-20 14:54 33.949155 -118.400634 350 124ft 0kts
16-May-20 14:55 33.949581 -118.400719 351 123ft 0kts
16-May-20 14:56 33.949969 -118.403701 265 125ft 63kts
16-May-20 14:57 33.944938 -118.454262 263 1662ft 179kts
16-May-20 14:58 33.942340 -118.515993 299 3290ft 207kts
16-May-20 14:59 34.003478 -118.537338 352 5347ft 253kts
16-May-20 15:00 34.058025 -118.502907 84 8012ft 273kts
16-May-20 15:01 34.056668 -118.405999 92 10628ft 303kts
16-May-20 15:02 34.054141 -118.302344 92 12996ft 328kts
16-May-20 15:03 34.051933 -118.187586 91 14888ft 353kts
16-May-20 15:04 34.065211 -118.072036 49 16383ft 372kts
16-May-20 15:05 34.135644 -117.975496 50 18746ft 395kts
16-May-20 15:06 34.203715 -117.867798 52 21057ft 412kts
16-May-20 15:07 34.273844 -117.754512 51 22897ft 433kts
16-May-20 15:08 34.345052 -117.639009 52 22946ft 427kts
16-May-20 15:09 34.416153 -117.523516 51 22965ft 428kts
16-May-20 15:10 34.487073 -117.408205 51 22966ft 427kts
16-May-20 15:11 34.557509 -117.293623 52 22961ft 428kts
16-May-20 15:12 34.628734 -117.177678 52 22962ft 428kts
16-May-20 15:13 34.700833 -117.060171 52 23953ft 439kts
16-May-20 15:14 34.773032 -116.942358 51 23901ft 437kts
16-May-20 15:15 34.845659 -116.823756 51 23901ft 437kts
16-May-20 15:16 34.918337 -116.704954 51 23903ft 435kts
16-May-20 15:17 34.990601 -116.586740 51 23904ft 435kts
16-May-20 15:18 35.062842 -116.468453 51 23924ft 435kts
16-May-20 15:19 35.137880 -116.355766 42 23952ft 433kts
16-May-20 15:20 35.221770 -116.253180 43 23926ft 433kts
16-May-20 15:21 35.306306 -116.148022 42 23927ft 434kts
16-May-20 15:22 35.390366 -116.042484 42 23928ft 434kts
16-May-20 15:23 35.474533 -115.936271 43 21969ft 430kts
16-May-20 15:24 35.555819 -115.833275 44 19713ft 409kts
16-May-20 15:25 35.632754 -115.735282 44 17520ft 391kts
16-May-20 15:26 35.706637 -115.640576 45 15355ft 374kts
16-May-20 15:27 35.787938 -115.575449 8 13566ft 342kts
16-May-20 15:28 35.878313 -115.568727 1 13020ft 309kts
16-May-20 15:29 35.962071 -115.546839 35 13014ft 316kts
16-May-20 15:30 36.006180 -115.455032 69 13001ft 315kts
16-May-20 15:31 36.028713 -115.357107 89 13004ft 286kts
16-May-20 15:32 36.022782 -115.259552 96 13000ft 289kts
16-May-20 15:33 36.015690 -115.160585 96 12974ft 291kts
16-May-20 15:34 36.008992 -115.060001 96 11138ft 288kts
16-May-20 15:35 36.003699 -114.963772 95 9431ft 273kts
16-May-20 15:36 35.999139 -114.874541 95 8054ft 244kts
16-May-20 15:37 35.997384 -114.793798 67 7459ft 239kts
16-May-20 15:38 36.053931 -114.789546 311 6037ft 232kts
16-May-20 15:39 36.072625 -114.859677 271 4788ft 200kts
16-May-20 15:40 36.073483 -114.927775 267 4773ft 198kts
16-May-20 15:41 36.073635 -114.995571 268 4154ft 189kts
16-May-20 15:42 36.073653 -115.053402 268 3245ft 155kts
16-May-20 15:43 36.073733 -115.106455 269 2420ft 167kts
16-May-20 15:44 36.071854 -115.165296 267 4271ft 165kts
16-May-20 15:45 36.061992 -115.229889 232 5776ft 242kts
16-May-20 15:46 35.999224 -115.230667 124 5835ft 250kts
16-May-20 15:47 35.984835 -115.153748 94 5841ft 223kts
16-May-20 15:48 35.994518 -115.078569 71 5818ft 211kts
16-May-20 15:49 36.026755 -115.031042 1 4891ft 216kts
16-May-20 15:50 36.074188 -115.059085 282 3546ft 181kts
16-May-20 15:51 36.073625 -115.114399 269 2280ft 160kts
16-May-20 15:52 36.073773 -115.152474 278 2135ft 35kts
16-May-20 15:53 36.074654 -115.154961 302 2141ft 0kts
16-May-20 15:54 36.074950 -115.155524 303 2142ft 5kts
16-May-20 15:55 36.077791 -115.157973 46 2145ft 6kts
16-May-20 15:56 36.078465 -115.153288 7 2126ft 12kts
16-May-20 15:57 36.081662 -115.152940 82 2117ft 17kts
16-May-20 15:58 36.082295 -115.151121 20 2110ft 0kts
16-May-20 15:59 36.082304 -115.151117 20 2110ft 0kts

Navigation Log

Ident Type
Flight plan parsing failed, navigation log unavailable